Nashville, TN (37203)

7:32 AM CDT on March 29, 2015 (GMT -0500)
Green Hills | | Change Station
CLOSE
Current Station
Personal Weather Station
Location: Nashville, TN
Elevation: 699 ft
Nearby Weather Stations
Active Advisory: Hard Freeze Warning

Elev 699 ft 36.09 °N, 86.83 °W | Updated 10 minutes ago

Clear
Clear
33.1 °F
Feels Like 33 °F
N
0.0
Wind Variable Wind from SSW
Gusts 0.0 mph

Today
High -- | Low -- °F
--% Chance of Precip.
Yesterday
High -- | Low -- °F
Precip. -- in
6:38 AM 7:06 PM
Waxing Gibbous, 71% visible
Pressure 30.35 in
Visibility 10.0 miles
Clouds Few 25000 ft
Windchill 33 °F
Dew Point 16 °F
Humidity 48%
Rainfall 0.00 in
Snow Depth Not available.
UV 0 out of 12
Pollen 8.50 out of 12
Air Quality Not available.
Flu Activity Not available.
METAR KBNA 291153Z 15005KT 10SM FEW250 M02/M08 A3034 RMK AO2 SLP276 T10221078 10000 21044 52003

More Conditions Fewer Conditions

Pressure 30.35 in
Visibility 10.0 miles
Clouds Few 25000 ft
Windchill 33 °F
Dew Point 16 °F
Humidity 48%
Rainfall 0.00 in
Snow Depth Not available.
UV 0 out of 12
Pollen 8.50 out of 12
Air Quality Not available.
Flu Activity Not available.
METAR KBNA 291153Z 15005KT 10SM FEW250 M02/M08 A3034 RMK AO2 SLP276 T10221078 10000 21044 52003

More Conditions Fewer Conditions

10-Day Weather Forecast

Almanac

Astronomy

Mar. 29, 2015 Rise Set
Actual Time
Civil Twilight
Nautical Twilight
Astronomical Twilight
Moon
Length of Visible Light
Length of Day
Tomorrow will be .
, % of the Moon is Illuminated

Today's Extremes

State Highs State Lows

Community

WunderPhotos

Upload Photos

1,809,230 photos uploaded!

WunderBlogs® & News

Nearby

Air Quality

  Air Quality AQ Index Pollutant
Not available.

Snow Depth

Station Depth Elevation

Earthquake Activity

City Distance Mag. Time & Date
Minimum magnitude displayed is 2.5.

Coastal Water Temperatures

Place Temperature

Stations

Nearby Weather Stations

Station Location Temp. Windchill Dew Point Humidity Wind Precip. Elev Updated Type
                   
Hard Freeze Warning
Statement as of 3:47 AM CDT on March 29, 2015

... Hard freeze warning remains in effect until 10 am CDT this
morning...

* temperature... 20 degrees to around 28 degrees.

* Impacts... outdoor sensitive vegetation is likely being damaged
and killed.


21